Latest Coastal Weather Observations for Darwin Airport

IDD60701

Issued at 12:51 am CST Thursday 25 May 2017 (issued every 10 minutes, with the page automatically refreshed every 10 minutes)

About coastal observations | Map of coastal stations | Coastal observations for NT | Marine services | Other Formats
Station Details ID: 014015 Name: DARWIN AIRPORT Lat: -12.42 Lon: 130.89 Height: 30.4 m
Data from the previous 72 hours. | See also: Recent months at Darwin Airport
Date/Time
CST
Temp
°C
Wind Pressure Rain since
9am
mm
Weather Cloud Vis
km
Sea
Height
m
Swell
Dir  Spd
kts
Gust
kts
hPa Trend Height
m
Period
s
Dir
25/12:30am 23.4 ESE 1 2 1012.5 - 0.0 - - 10 - - - -
25/12:00am 24.1 SE 4 4 1012.4 R 0.0 Fine Clear 30 - - - -
 
Date/Time
CST
Temp
°C
Wind Pressure Rain since
9am
mm
Weather Cloud Vis
km
Sea
Height
m
Swell
Dir  Spd
kts
Gust
kts
hPa Trend Height
m
Period
s
Dir
24/11:30pm 24.2 SSE 4 5 1012.5 - 0.0 - - 10 - - - -
24/11:00pm 25.1 SSE 4 5 1012.6 - 0.0 - - 10 - - - -
24/10:30pm 25.0 S 3 4 1012.6 - 0.0 - - 10 - - - -
24/10:00pm 24.1 ENE 2 3 1012.4 - 0.0 - - 10 - - - -
24/09:30pm 24.5 ENE 3 5 1012.2 - 0.0 - - 10 - - - -
24/09:00pm 25.1 ENE 4 4 1012.0 R 0.0 Fine Clear 30 - - - -
24/08:30pm 25.6 NE 4 6 1011.9 - 0.0 - - 10 - - - -
24/08:00pm 26.3 NE 5 8 1011.4 - 0.0 - - 10 - - - -
24/07:30pm 26.9 NNE 5 8 1011.1 - 0.0 - - 10 - - - -
24/07:00pm 27.5 NNE 6 8 1010.7 - 0.0 - - 10 - - - -
24/06:30pm 28.4 NNE 6 9 1010.3 - 0.0 - - 10 - - - -
24/06:00pm 29.8 NNE 8 9 1009.9 R 0.0 Smoke Clear 30 - - - -
24/05:30pm 31.8 ENE 8 11 1009.4 - 0.0 - - 10 - - - -
24/05:00pm 32.5 E 8 11 1009.1 - 0.0 - - 10 - - - -
24/04:30pm 32.9 E 10 13 1008.9 - 0.0 - - 10 - - - -
24/04:00pm 33.1 E 11 15 1009.0 - 0.0 - - 10 - - - -
24/03:30pm 33.6 E 11 17 1009.3 - 0.0 - - 10 - - - -
24/03:00pm 33.3 E 12 16 1009.5 F 0.0 Smoke Mostly clear 30 - - - -
24/02:30pm 32.9 ESE 14 20 1009.9 - 0.0 - - 10 - - - -
24/02:00pm 33.3 E 15 21 1010.3 - 0.0 - - 10 - - - -
24/01:30pm 32.7 E 14 21 1010.7 - 0.0 - - 10 - - - -
24/01:00pm 32.7 E 15 24 1011.0 - 0.0 - - 10 - - - -
24/12:30pm 32.5 E 15 25 1011.6 - 0.0 - - 10 - - - -
24/12:00pm 31.9 E 15 21 1012.1 F 0.0 Fine Mostly clear 30 - - - -
24/11:30am 31.6 E 11 15 1012.7 - 0.0 - - 10 - - - -
24/11:00am 30.8 E 12 15 1013.2 - 0.0 - - 10 - - - -
24/10:30am 30.1 E 9 13 1013.5 - 0.0 - - 10 - - - -
24/10:00am 29.9 E 12 16 1013.5 - 0.0 - - 10 - - - -
24/09:30am 29.1 E 9 12 1013.5 - 0.0 - - 10 - - - -
24/09:00am 28.5 E 9 12 1013.4 R 0.0 Fine Mostly clear 30 - - - -
24/08:30am 27.7 E 5 7 1013.1 - 0.0 - - 10 - - - -
24/08:00am 25.9 ESE 3 5 1012.7 - 0.0 - - 10 - - - -
24/07:30am 22.6 SE 2 2 1012.4 - 0.0 - - 10 - - - -
24/07:09am 22.6 SE 1 2 1012.2 - 0.0 - - 10 - - - -
24/07:00am 22.7 SE 1 1 1012.1 - 0.0 Shallow fog - 10 - - - -
24/06:30am 23.0 SE 2 3 1011.7 - 0.0 - - 10 - - - -
24/06:00am 23.3 ESE 2 3 1011.5 S 0.0 Fine Mostly clear 26 - - - -
24/05:30am 23.6 S 2 3 1011.2 - 0.0 - - 10 - - - -
24/05:00am 23.9 SSE 2 3 1011.2 - 0.0 - - 10 - - - -
24/04:30am 24.4 SSE 4 4 1011.0 - 0.0 - - 10 - - - -
24/04:00am 24.5 SSE 4 5 1011.1 - 0.0 - - 10 - - - -
24/03:30am 24.6 SE 4 5 1011.2 - 0.0 - - 10 - - - -
24/03:00am 24.7 SSE 4 5 1011.2 F 0.0 - - 10 - - - -
24/02:30am 25.0 SSE 5 7 1011.2 - 0.0 - - 10 - - - -
24/02:00am 25.4 SSE 5 6 1011.3 - 0.0 - - 10 - - - -
24/01:30am 25.5 SSE 5 6 1011.5 - 0.0 - - 10 - - - -
24/01:00am 25.8 SSE 5 6 1011.7 - 0.0 - - 10 - - - -
24/12:30am 26.2 SSE 4 5 1012.0 - 0.0 - - 10 - - - -
24/12:00am 26.1 SSE 3 4 1012.1 F 0.0 Fine Clear 30 - - - -
 
Date/Time
CST
Temp
°C
Wind Pressure Rain since
9am
mm
Weather Cloud Vis
km
Sea
Height
m
Swell
Dir  Spd
kts
Gust
kts
hPa Trend Height
m
Period
s
Dir
23/11:30pm 26.1 S 5 8 1012.1 - 0.0 - - 10 - - - -
23/11:00pm 26.2 ENE 3 4 1012.0 - 0.0 - - 10 - - - -
23/10:30pm 26.5 NE 4 5 1012.1 - 0.0 - - 10 - - - -
23/10:00pm 26.9 NE 5 7 1012.2 - 0.0 - - 10 - - - -
23/09:30pm 27.1 NE 6 8 1012.2 - 0.0 - - 10 - - - -
23/09:00pm 27.3 NNE 6 8 1012.0 F 0.0 Fine Clear 30 - - - -
23/08:30pm 27.6 NE 6 8 1011.7 - 0.0 - - 10 - - - -
23/08:00pm 27.8 NNE 6 9 1011.5 - 0.0 - - 10 - - - -
23/07:30pm 28.3 NNE 7 9 1011.2 - 0.0 - - 10 - - - -
23/07:00pm 28.7 NNE 7 9 1010.9 - 0.0 - - 10 - - - -
23/06:30pm 29.5 NNE 8 11 1010.7 - 0.0 - - 10 - - - -
23/06:00pm 30.7 NNE 10 14 1010.4 R 0.0 Fine Mostly clear 30 - - - -
23/05:30pm 31.5 NNE 11 15 1010.2 - 0.0 - - 10 - - - -
23/05:00pm 32.4 NNE 10 14 1009.9 - 0.0 - - 10 - - - -
23/04:30pm 33.6 ENE 7 17 1009.5 - 0.0 - Mostly clear 10 - - - -
23/04:00pm 34.1 ESE 10 15 1009.5 - 0.0 - - 10 - - - -
23/03:30pm 34.0 ESE 11 15 1009.6 - 0.0 - - 10 - - - -
23/03:00pm 34.0 ESE 12 17 1009.7 S 0.0 Fine Partly cloudy 30 - - - -
23/02:30pm 33.8 E 11 17 1010.1 - 0.0 - - 10 - - - -
23/02:00pm 33.3 ENE 12 17 1010.4 - 0.0 - - 10 - - - -
23/01:30pm 33.1 E 13 17 1010.8 - 0.0 - Mostly clear 10 - - - -
23/01:00pm 33.1 ESE 15 21 1011.3 - 0.0 - Mostly clear 10 - - - -
23/12:30pm 32.9 E 15 20 1011.7 - 0.0 - Mostly clear 10 - - - -
23/12:00pm 32.3 E 14 22 1012.2 F 0.0 Smoke Mostly cloudy 30 - - - -
23/11:30am 31.8 E 13 19 1012.5 - 0.0 - Mostly clear 10 - - - -
23/11:00am 32.0 ENE 12 20 1012.8 - 0.0 - Mostly clear 10 - - - -
23/10:30am 31.4 E 12 16 1013.0 - 0.0 - Mostly clear 10 - - - -
23/10:00am 30.7 E 7 11 1013.3 - 0.0 - - 10 - - - -
23/09:30am 29.7 E 6 9 1013.2 - 0.0 - - 10 - - - -
23/09:00am 28.7 ESE 4 6 1013.3 R 0.0 Fine Mostly cloudy 30 - - - -
23/08:30am 27.8 SE 3 4 1013.0 - 0.0 - - 10 - - - -
23/08:00am 26.6 SE 3 4 1012.7 - 0.0 - - 10 - - - -
23/07:30am 25.0 SE 2 3 1012.4 - 0.0 - - 10 - - - -
23/07:00am 24.1 SSE 2 2 1012.1 - 0.0 Fog patches - 10 - - - -
23/06:30am 24.2 CALM 0 1 1011.6 - 0.0 - Mostly clear 10 - - - -
23/06:00am 24.2 ESE 1 2 1011.5 S 0.0 Fine Clear 30 - - - -
23/05:30am 24.9 SE 2 3 1011.2 - 0.0 - - 10 - - - -
23/05:00am 24.4 SE 2 3 1011.0 - 0.0 - - 10 - - - -
23/04:30am 25.1 SSE 3 4 1010.9 - 0.0 - - 10 - - - -
23/04:00am 25.1 SSE 4 5 1010.9 - 0.0 - - 10 - - - -
23/03:30am 25.3 SSE 4 5 1011.1 - 0.0 - - 10 - - - -
23/03:00am 25.6 SSE 4 5 1011.2 F 0.0 - - 10 - - - -
23/02:30am 25.7 SE 3 3 1011.3 - 0.0 - - 10 - - - -
23/01:30am 26.0 SSE 4 5 1011.8 - 0.0 - - 10 - - - -
23/01:00am 26.2 SSE 4 5 1011.8 - 0.0 - - 10 - - - -
23/12:30am 25.6 SE 2 3 1012.1 - 0.0 - Partly cloudy 10 - - - -
23/12:00am 25.8 S 2 3 1012.3 F 0.0 Fine Mostly clear 30 - - - -
 
Date/Time
CST
Temp
°C
Wind Pressure Rain since
9am
mm
Weather Cloud Vis
km
Sea
Height
m
Swell
Dir  Spd
kts
Gust
kts
hPa Trend Height
m
Period
s
Dir
22/11:30pm 25.8 CALM 0 0 1012.2 - 0.0 - - 10 - - - -
22/11:00pm 25.8 CALM 0 0 1012.4 - 0.0 - - 10 - - - -
22/10:30pm 26.2 CALM 0 0 1012.7 - 0.0 - - 10 - - - -
22/10:00pm 26.8 SSW 3 3 1012.7 - 0.0 - - 10 - - - -
22/09:30pm 27.6 SSW 3 3 1012.6 - 0.0 - - 10 - - - -
22/09:00pm 27.2 CALM 0 0 1012.4 F 0.0 Fine Clear 30 - - - -
22/08:30pm 27.5 NNE 3 4 1012.2 - 0.0 - - 10 - - - -
22/08:00pm 27.8 NNE 3 4 1011.8 - 0.0 - - 10 - - - -
22/07:30pm 27.9 NNE 5 6 1011.3 - 0.0 - Partly cloudy 10 - - - -
22/07:00pm 28.4 NNE 5 6 1011.1 - 0.0 - Partly cloudy 10 - - - -
22/06:30pm 28.7 N 6 8 1011.0 - 0.0 - Partly cloudy 10 - - - -
22/06:00pm 29.1 N 6 9 1010.6 R 0.0 Fine Mostly clear 30 - - - -
22/05:30pm 30.3 N 8 10 1010.3 - 0.0 - Mostly clear 10 - - - -
22/05:00pm 30.8 N 8 11 1009.9 - 0.0 - Mostly clear 10 - - - -
22/04:30pm 30.9 NNW 8 10 1009.8 - 0.0 - Partly cloudy 10 - - - -
22/04:00pm 31.8 N 8 11 1009.7 - 0.0 - Partly cloudy 10 - - - -
22/03:30pm 31.4 NNW 9 12 1009.7 - 0.0 - Partly cloudy 10 - - - -
22/03:00pm 31.1 NNW 8 10 1009.8 R 0.0 Fine Partly cloudy 30 - - - -
22/02:30pm 31.5 NW 8 12 1009.9 - 0.0 - Partly cloudy 10 - - - -
22/02:00pm 32.8 WNW 8 10 1010.2 - 0.0 - Partly cloudy 10 - - - -
22/01:30pm 32.2 NW 5 8 1010.8 - 0.0 - Partly cloudy 10 - - - -
22/01:00pm 32.5 E 7 11 1011.0 - 0.0 - Mostly clear 10 - - - -
22/12:30pm 32.0 ENE 7 11 1011.6 - 0.0 - Mostly clear 10 - - - -
22/12:00pm 31.5 ENE 9 13 1012.1 F 0.0 Fine Partly cloudy 30 - - - -
22/11:30am 31.2 ENE 9 12 1012.5 - 0.0 - Mostly clear 10 - - - -
22/11:00am 31.1 E 7 12 1012.9 - 0.0 - Mostly clear 10 - - - -
22/10:30am 30.9 ENE 8 10 1013.2 - 0.0 - Mostly clear 10 - - - -
22/10:00am 29.6 ENE 7 12 1013.2 - 0.0 - Mostly clear 10 - - - -
22/09:30am 28.7 SE 3 5 1013.2 - 0.0 - Mostly clear 10 - - - -
22/09:00am 27.5 SSE 4 5 1013.1 R 0.0 Fine Mostly clear 10 - - - -
22/08:30am 26.5 SSE 4 5 1012.9 - 0.0 - Mostly clear 8 - - - -
22/08:00am 25.5 SSE 3 5 1012.4 - 0.0 - Mostly clear 8 - - - -
22/07:30am 24.7 SSE 4 5 1011.9 - 0.0 - Mostly clear 8 - - - -
22/07:00am 24.1 SE 4 6 1011.6 - 0.0 - Mostly clear 8 - - - -
22/06:30am 23.9 SE 3 5 1011.7 - 0.0 - Mostly clear 10 - - - -
22/06:00am 23.9 SSE 3 5 1011.6 R 0.0 Fine Mostly clear 30 - - - -
22/05:30am 24.1 SE 2 2 1011.5 - 0.0 - - 10 - - - -
22/05:00am 24.3 E 2 3 1011.4 - 0.0 - Partly cloudy 10 - - - -
22/04:30am 24.5 E 2 3 1011.2 - 0.0 - Partly cloudy 10 - - - -
22/04:00am 24.8 SE 1 2 1011.0 - 0.0 - Partly cloudy 10 - - - -
22/03:30am 24.6 SE 4 5 1011.1 - 0.0 - Partly cloudy 10 - - - -
22/03:00am 24.7 ESE 3 4 1010.9 R 0.0 - Mostly clear 10 - - - -
22/02:30am 23.7 SSW 3 3 1010.7 - 0.0 - - 10 - - - -
22/02:00am 24.1 SSW 3 4 1010.6 - 0.0 - - 10 - - - -
22/01:30am 24.2 SSW 3 3 1010.7 - 0.0 - - 10 - - - -
22/01:00am 25.4 SSW 3 3 1010.5 - 0.0 - - 10 - - - -

Other Formats:

Comma delimited format used in spreadsheet applications
http://www.bom.gov.au/fwo/IDD60701/IDD60701.94120.axf

JavaScript Object Notation format (JSON) in row-major order
http://www.bom.gov.au/fwo/IDD60701/IDD60701.94120.json